sensor_id;sensor_type;location;lat;lon;timestamp;P1;durP1;ratioP1;P2;durP2;ratioP2
944;SDS011;459;48.676;9.034;2022-12-07T00:01:09;14.37;;;9.73;;
944;SDS011;459;48.676;9.034;2022-12-07T00:03:35;11.73;;;9.67;;
944;SDS011;459;48.676;9.034;2022-12-07T00:06:01;10.33;;;8.97;;
944;SDS011;459;48.676;9.034;2022-12-07T00:08:27;14.73;;;9.70;;
944;SDS011;459;48.676;9.034;2022-12-07T00:10:52;14.17;;;9.80;;
944;SDS011;459;48.676;9.034;2022-12-07T00:13:17;11.40;;;8.50;;
944;SDS011;459;48.676;9.034;2022-12-07T00:15:43;10.03;;;8.30;;
944;SDS011;459;48.676;9.034;2022-12-07T00:18:08;13.90;;;9.20;;
944;SDS011;459;48.676;9.034;2022-12-07T00:20:33;11.07;;;8.50;;
944;SDS011;459;48.676;9.034;2022-12-07T00:22:59;13.23;;;10.00;;
944;SDS011;459;48.676;9.034;2022-12-07T00:25:24;13.53;;;9.07;;
944;SDS011;459;48.676;9.034;2022-12-07T00:27:49;11.90;;;9.70;;
944;SDS011;459;48.676;9.034;2022-12-07T00:30:14;15.00;;;10.17;;
944;SDS011;459;48.676;9.034;2022-12-07T00:32:40;15.20;;;10.70;;
944;SDS011;459;48.676;9.034;2022-12-07T00:35:05;16.60;;;13.00;;
944;SDS011;459;48.676;9.034;2022-12-07T00:37:30;15.83;;;12.37;;
944;SDS011;459;48.676;9.034;2022-12-07T00:39:55;16.50;;;12.00;;
944;SDS011;459;48.676;9.034;2022-12-07T00:42:21;14.73;;;10.90;;
944;SDS011;459;48.676;9.034;2022-12-07T00:44:46;13.80;;;10.20;;
944;SDS011;459;48.676;9.034;2022-12-07T00:47:11;12.60;;;9.97;;
944;SDS011;459;48.676;9.034;2022-12-07T00:49:36;13.83;;;9.67;;
944;SDS011;459;48.676;9.034;2022-12-07T00:52:01;14.27;;;11.03;;
944;SDS011;459;48.676;9.034;2022-12-07T00:54:27;16.57;;;13.40;;
944;SDS011;459;48.676;9.034;2022-12-07T00:56:52;13.00;;;10.53;;
944;SDS011;459;48.676;9.034;2022-12-07T00:59:17;16.10;;;11.67;;
944;SDS011;459;48.676;9.034;2022-12-07T01:01:42;18.20;;;13.30;;
944;SDS011;459;48.676;9.034;2022-12-07T01:04:08;16.83;;;13.10;;
944;SDS011;459;48.676;9.034;2022-12-07T01:06:33;16.17;;;12.00;;
944;SDS011;459;48.676;9.034;2022-12-07T01:08:58;16.53;;;13.33;;
944;SDS011;459;48.676;9.034;2022-12-07T01:11:24;14.33;;;11.90;;
944;SDS011;459;48.676;9.034;2022-12-07T01:13:51;21.83;;;14.37;;
944;SDS011;459;48.676;9.034;2022-12-07T01:16:16;27.10;;;18.53;;
944;SDS011;459;48.676;9.034;2022-12-07T01:18:42;31.90;;;22.37;;
944;SDS011;459;48.676;9.034;2022-12-07T01:21:11;24.10;;;17.23;;
944;SDS011;459;48.676;9.034;2022-12-07T01:23:36;15.30;;;12.60;;
944;SDS011;459;48.676;9.034;2022-12-07T01:26:03;14.50;;;11.50;;
944;SDS011;459;48.676;9.034;2022-12-07T01:28:29;19.33;;;14.07;;
944;SDS011;459;48.676;9.034;2022-12-07T01:31:13;17.60;;;14.03;;
944;SDS011;459;48.676;9.034;2022-12-07T01:33:39;16.40;;;11.33;;
944;SDS011;459;48.676;9.034;2022-12-07T01:36:12;15.70;;;11.90;;
944;SDS011;459;48.676;9.034;2022-12-07T01:38:38;15.70;;;11.57;;
944;SDS011;459;48.676;9.034;2022-12-07T01:41:03;13.13;;;10.50;;
944;SDS011;459;48.676;9.034;2022-12-07T01:43:29;13.70;;;11.87;;
944;SDS011;459;48.676;9.034;2022-12-07T01:45:55;18.00;;;12.30;;
944;SDS011;459;48.676;9.034;2022-12-07T01:48:22;14.17;;;12.03;;
944;SDS011;459;48.676;9.034;2022-12-07T01:50:48;15.57;;;12.00;;
944;SDS011;459;48.676;9.034;2022-12-07T01:53:15;13.47;;;10.43;;
944;SDS011;459;48.676;9.034;2022-12-07T01:55:42;15.77;;;10.87;;
944;SDS011;459;48.676;9.034;2022-12-07T01:58:09;11.67;;;10.20;;
944;SDS011;459;48.676;9.034;2022-12-07T02:00:35;13.27;;;10.30;;
944;SDS011;459;48.676;9.034;2022-12-07T02:03:05;16.40;;;11.43;;
944;SDS011;459;48.676;9.034;2022-12-07T02:05:31;14.40;;;10.67;;
944;SDS011;459;48.676;9.034;2022-12-07T02:07:57;15.00;;;10.77;;
944;SDS011;459;48.676;9.034;2022-12-07T02:10:23;15.03;;;11.23;;
944;SDS011;459;48.676;9.034;2022-12-07T02:12:50;13.00;;;11.07;;
944;SDS011;459;48.676;9.034;2022-12-07T02:15:16;14.07;;;11.43;;
944;SDS011;459;48.676;9.034;2022-12-07T02:17:49;12.43;;;10.20;;
944;SDS011;459;48.676;9.034;2022-12-07T02:20:38;16.50;;;11.90;;
944;SDS011;459;48.676;9.034;2022-12-07T02:25:53;16.65;;;10.55;;
944;SDS011;459;48.676;9.034;2022-12-07T02:28:34;12.03;;;9.93;;
944;SDS011;459;48.676;9.034;2022-12-07T02:31:08;14.97;;;11.03;;
944;SDS011;459;48.676;9.034;2022-12-07T02:33:45;11.70;;;9.43;;
944;SDS011;459;48.676;9.034;2022-12-07T02:36:34;14.60;;;11.43;;
944;SDS011;459;48.676;9.034;2022-12-07T02:38:58;13.67;;;10.47;;
944;SDS011;459;48.676;9.034;2022-12-07T02:41:26;11.13;;;9.90;;
944;SDS011;459;48.676;9.034;2022-12-07T02:43:52;15.73;;;11.20;;
944;SDS011;459;48.676;9.034;2022-12-07T02:46:21;15.33;;;11.13;;
944;SDS011;459;48.676;9.034;2022-12-07T02:48:47;11.23;;;9.33;;
944;SDS011;459;48.676;9.034;2022-12-07T02:51:12;15.70;;;12.13;;
944;SDS011;459;48.676;9.034;2022-12-07T02:53:39;12.57;;;10.30;;
944;SDS011;459;48.676;9.034;2022-12-07T02:56:22;11.07;;;9.27;;
944;SDS011;459;48.676;9.034;2022-12-07T02:59:02;9.80;;;8.23;;
944;SDS011;459;48.676;9.034;2022-12-07T03:04:03;11.07;;;9.20;;
944;SDS011;459;48.676;9.034;2022-12-07T03:06:32;12.43;;;10.10;;
944;SDS011;459;48.676;9.034;2022-12-07T03:09:07;10.90;;;8.80;;
944;SDS011;459;48.676;9.034;2022-12-07T03:14:03;14.32;;;11.02;;
944;SDS011;459;48.676;9.034;2022-12-07T03:16:33;13.20;;;10.80;;
944;SDS011;459;48.676;9.034;2022-12-07T03:19:08;13.90;;;10.63;;
944;SDS011;459;48.676;9.034;2022-12-07T03:21:37;13.00;;;10.63;;
944;SDS011;459;48.676;9.034;2022-12-07T03:24:05;12.20;;;9.37;;
944;SDS011;459;48.676;9.034;2022-12-07T03:26:32;11.97;;;8.80;;
944;SDS011;459;48.676;9.034;2022-12-07T03:29:00;15.00;;;10.50;;
944;SDS011;459;48.676;9.034;2022-12-07T03:31:28;13.10;;;10.50;;
944;SDS011;459;48.676;9.034;2022-12-07T03:38:45;13.10;;;10.70;;
944;SDS011;459;48.676;9.034;2022-12-07T03:41:13;13.70;;;10.60;;
944;SDS011;459;48.676;9.034;2022-12-07T03:43:39;13.40;;;10.00;;
944;SDS011;459;48.676;9.034;2022-12-07T03:46:08;11.73;;;9.83;;
944;SDS011;459;48.676;9.034;2022-12-07T03:48:41;14.13;;;9.43;;
944;SDS011;459;48.676;9.034;2022-12-07T03:53:42;12.63;;;10.87;;
944;SDS011;459;48.676;9.034;2022-12-07T03:56:09;12.50;;;9.80;;
944;SDS011;459;48.676;9.034;2022-12-07T03:58:35;17.17;;;12.43;;
944;SDS011;459;48.676;9.034;2022-12-07T04:01:01;13.67;;;10.40;;
944;SDS011;459;48.676;9.034;2022-12-07T04:03:27;13.77;;;11.00;;
944;SDS011;459;48.676;9.034;2022-12-07T04:05:52;14.60;;;10.83;;
944;SDS011;459;48.676;9.034;2022-12-07T04:08:17;14.10;;;10.97;;
944;SDS011;459;48.676;9.034;2022-12-07T04:10:42;15.57;;;10.47;;
944;SDS011;459;48.676;9.034;2022-12-07T04:13:08;12.20;;;10.23;;
944;SDS011;459;48.676;9.034;2022-12-07T04:15:33;15.00;;;10.77;;
944;SDS011;459;48.676;9.034;2022-12-07T04:17:58;13.47;;;11.47;;
944;SDS011;459;48.676;9.034;2022-12-07T04:20:23;14.80;;;11.03;;
944;SDS011;459;48.676;9.034;2022-12-07T04:22:49;14.20;;;11.07;;
944;SDS011;459;48.676;9.034;2022-12-07T04:25:14;15.83;;;11.60;;
944;SDS011;459;48.676;9.034;2022-12-07T04:27:39;13.53;;;11.07;;
944;SDS011;459;48.676;9.034;2022-12-07T04:30:04;13.73;;;10.60;;
944;SDS011;459;48.676;9.034;2022-12-07T04:32:30;13.77;;;11.03;;
944;SDS011;459;48.676;9.034;2022-12-07T04:34:55;13.93;;;9.97;;
944;SDS011;459;48.676;9.034;2022-12-07T04:37:20;13.87;;;9.90;;
944;SDS011;459;48.676;9.034;2022-12-07T04:39:45;11.17;;;8.20;;
944;SDS011;459;48.676;9.034;2022-12-07T04:42:11;13.27;;;9.90;;
944;SDS011;459;48.676;9.034;2022-12-07T04:44:37;13.67;;;10.40;;
944;SDS011;459;48.676;9.034;2022-12-07T04:47:02;13.77;;;10.07;;
944;SDS011;459;48.676;9.034;2022-12-07T04:49:28;12.50;;;9.40;;
944;SDS011;459;48.676;9.034;2022-12-07T04:51:53;11.90;;;9.37;;
944;SDS011;459;48.676;9.034;2022-12-07T04:54:18;10.27;;;8.63;;
944;SDS011;459;48.676;9.034;2022-12-07T04:56:43;10.60;;;8.60;;
944;SDS011;459;48.676;9.034;2022-12-07T04:59:09;11.93;;;9.80;;
944;SDS011;459;48.676;9.034;2022-12-07T05:01:35;11.37;;;8.30;;
944;SDS011;459;48.676;9.034;2022-12-07T05:04:00;10.90;;;9.00;;
944;SDS011;459;48.676;9.034;2022-12-07T05:06:26;10.63;;;8.43;;
944;SDS011;459;48.676;9.034;2022-12-07T05:08:51;10.57;;;8.47;;
944;SDS011;459;48.676;9.034;2022-12-07T05:11:16;12.03;;;8.43;;
944;SDS011;459;48.676;9.034;2022-12-07T05:14:02;9.33;;;7.80;;
944;SDS011;459;48.676;9.034;2022-12-07T05:16:28;9.53;;;7.37;;
944;SDS011;459;48.676;9.034;2022-12-07T05:18:53;7.70;;;6.47;;
944;SDS011;459;48.676;9.034;2022-12-07T05:21:18;9.33;;;7.83;;
944;SDS011;459;48.676;9.034;2022-12-07T05:23:43;10.37;;;7.03;;
944;SDS011;459;48.676;9.034;2022-12-07T05:26:09;9.50;;;7.10;;
944;SDS011;459;48.676;9.034;2022-12-07T05:28:34;11.13;;;7.40;;
944;SDS011;459;48.676;9.034;2022-12-07T05:30:59;11.33;;;7.20;;
944;SDS011;459;48.676;9.034;2022-12-07T05:33:24;8.90;;;6.87;;
944;SDS011;459;48.676;9.034;2022-12-07T05:35:49;10.30;;;7.20;;
944;SDS011;459;48.676;9.034;2022-12-07T05:38:15;10.17;;;7.20;;
944;SDS011;459;48.676;9.034;2022-12-07T05:40:40;8.63;;;6.90;;
944;SDS011;459;48.676;9.034;2022-12-07T05:43:05;8.47;;;6.33;;
944;SDS011;459;48.676;9.034;2022-12-07T05:45:30;12.53;;;8.10;;
944;SDS011;459;48.676;9.034;2022-12-07T05:47:55;8.73;;;7.50;;
944;SDS011;459;48.676;9.034;2022-12-07T05:50:21;7.87;;;6.70;;
944;SDS011;459;48.676;9.034;2022-12-07T05:52:46;9.30;;;7.60;;
944;SDS011;459;48.676;9.034;2022-12-07T05:55:11;12.77;;;8.37;;
944;SDS011;459;48.676;9.034;2022-12-07T05:57:36;12.13;;;8.50;;
944;SDS011;459;48.676;9.034;2022-12-07T06:00:02;8.27;;;6.40;;
944;SDS011;459;48.676;9.034;2022-12-07T06:02:27;11.07;;;7.73;;
944;SDS011;459;48.676;9.034;2022-12-07T06:04:52;8.17;;;6.67;;
944;SDS011;459;48.676;9.034;2022-12-07T06:07:18;8.90;;;7.33;;
944;SDS011;459;48.676;9.034;2022-12-07T06:09:43;9.37;;;6.77;;
944;SDS011;459;48.676;9.034;2022-12-07T06:12:09;8.87;;;7.57;;
944;SDS011;459;48.676;9.034;2022-12-07T06:14:53;10.93;;;9.40;;
944;SDS011;459;48.676;9.034;2022-12-07T06:17:18;11.50;;;8.83;;
944;SDS011;459;48.676;9.034;2022-12-07T06:19:43;14.40;;;8.90;;
944;SDS011;459;48.676;9.034;2022-12-07T06:22:09;9.03;;;7.13;;
944;SDS011;459;48.676;9.034;2022-12-07T06:24:36;13.83;;;9.37;;
944;SDS011;459;48.676;9.034;2022-12-07T06:27:01;14.37;;;9.20;;
944;SDS011;459;48.676;9.034;2022-12-07T06:29:27;11.17;;;8.70;;
944;SDS011;459;48.676;9.034;2022-12-07T06:31:52;10.40;;;8.17;;
944;SDS011;459;48.676;9.034;2022-12-07T06:34:19;11.90;;;9.73;;
944;SDS011;459;48.676;9.034;2022-12-07T06:36:44;13.73;;;9.60;;
944;SDS011;459;48.676;9.034;2022-12-07T06:39:10;14.07;;;9.93;;
944;SDS011;459;48.676;9.034;2022-12-07T06:41:36;12.70;;;9.50;;
944;SDS011;459;48.676;9.034;2022-12-07T06:44:02;12.83;;;9.53;;
944;SDS011;459;48.676;9.034;2022-12-07T06:46:27;14.50;;;9.27;;
944;SDS011;459;48.676;9.034;2022-12-07T06:48:52;11.93;;;9.00;;
944;SDS011;459;48.676;9.034;2022-12-07T06:51:17;14.10;;;9.77;;
944;SDS011;459;48.676;9.034;2022-12-07T06:53:43;12.07;;;8.73;;
944;SDS011;459;48.676;9.034;2022-12-07T06:56:08;14.87;;;10.10;;
944;SDS011;459;48.676;9.034;2022-12-07T06:58:33;14.00;;;10.60;;
944;SDS011;459;48.676;9.034;2022-12-07T07:00:58;15.80;;;10.53;;
944;SDS011;459;48.676;9.034;2022-12-07T07:03:23;12.23;;;8.73;;
944;SDS011;459;48.676;9.034;2022-12-07T07:05:48;12.80;;;9.47;;
944;SDS011;459;48.676;9.034;2022-12-07T07:08:14;14.67;;;11.00;;
944;SDS011;459;48.676;9.034;2022-12-07T07:10:39;13.60;;;8.97;;
944;SDS011;459;48.676;9.034;2022-12-07T07:13:05;11.43;;;9.27;;
944;SDS011;459;48.676;9.034;2022-12-07T07:15:31;11.53;;;9.60;;
944;SDS011;459;48.676;9.034;2022-12-07T07:17:56;9.10;;;7.53;;
944;SDS011;459;48.676;9.034;2022-12-07T07:20:21;11.00;;;9.30;;
944;SDS011;459;48.676;9.034;2022-12-07T07:22:47;13.53;;;10.33;;
944;SDS011;459;48.676;9.034;2022-12-07T07:25:12;14.67;;;10.47;;
944;SDS011;459;48.676;9.034;2022-12-07T07:27:37;12.83;;;9.90;;
944;SDS011;459;48.676;9.034;2022-12-07T07:30:03;13.80;;;10.93;;
944;SDS011;459;48.676;9.034;2022-12-07T07:32:29;14.47;;;10.20;;
944;SDS011;459;48.676;9.034;2022-12-07T07:34:54;15.73;;;10.40;;
944;SDS011;459;48.676;9.034;2022-12-07T07:37:19;13.77;;;9.73;;
944;SDS011;459;48.676;9.034;2022-12-07T07:39:45;14.20;;;9.80;;
944;SDS011;459;48.676;9.034;2022-12-07T07:42:10;15.50;;;10.10;;
944;SDS011;459;48.676;9.034;2022-12-07T07:44:36;11.90;;;8.80;;
944;SDS011;459;48.676;9.034;2022-12-07T07:47:01;12.87;;;8.90;;
944;SDS011;459;48.676;9.034;2022-12-07T07:49:27;12.70;;;8.80;;
944;SDS011;459;48.676;9.034;2022-12-07T07:51:52;12.67;;;8.87;;
944;SDS011;459;48.676;9.034;2022-12-07T07:54:17;13.80;;;9.73;;
944;SDS011;459;48.676;9.034;2022-12-07T07:56:42;13.60;;;8.60;;
944;SDS011;459;48.676;9.034;2022-12-07T07:59:07;13.60;;;9.63;;
944;SDS011;459;48.676;9.034;2022-12-07T08:01:33;9.57;;;7.97;;
944;SDS011;459;48.676;9.034;2022-12-07T08:03:58;10.53;;;8.13;;
944;SDS011;459;48.676;9.034;2022-12-07T08:06:23;8.37;;;7.47;;
944;SDS011;459;48.676;9.034;2022-12-07T08:08:48;9.70;;;7.90;;
944;SDS011;459;48.676;9.034;2022-12-07T08:11:14;10.07;;;7.83;;
944;SDS011;459;48.676;9.034;2022-12-07T08:13:39;10.10;;;7.60;;
944;SDS011;459;48.676;9.034;2022-12-07T08:16:08;10.70;;;6.90;;
944;SDS011;459;48.676;9.034;2022-12-07T08:18:37;9.00;;;6.90;;
944;SDS011;459;48.676;9.034;2022-12-07T08:21:02;7.57;;;6.67;;
944;SDS011;459;48.676;9.034;2022-12-07T08:23:28;12.23;;;7.40;;
944;SDS011;459;48.676;9.034;2022-12-07T08:25:53;8.97;;;7.17;;
944;SDS011;459;48.676;9.034;2022-12-07T08:28:19;9.07;;;6.77;;
944;SDS011;459;48.676;9.034;2022-12-07T08:30:44;9.03;;;7.63;;
944;SDS011;459;48.676;9.034;2022-12-07T08:33:09;8.07;;;6.27;;
944;SDS011;459;48.676;9.034;2022-12-07T08:35:35;7.80;;;6.43;;
944;SDS011;459;48.676;9.034;2022-12-07T08:38:00;8.43;;;6.30;;
944;SDS011;459;48.676;9.034;2022-12-07T08:40:27;6.93;;;5.50;;
944;SDS011;459;48.676;9.034;2022-12-07T08:42:52;8.03;;;5.60;;
944;SDS011;459;48.676;9.034;2022-12-07T08:45:17;8.77;;;6.37;;
944;SDS011;459;48.676;9.034;2022-12-07T08:47:54;6.17;;;5.53;;
944;SDS011;459;48.676;9.034;2022-12-07T08:50:20;9.13;;;5.63;;
944;SDS011;459;48.676;9.034;2022-12-07T08:52:48;7.80;;;6.57;;
944;SDS011;459;48.676;9.034;2022-12-07T08:55:14;7.80;;;6.10;;
944;SDS011;459;48.676;9.034;2022-12-07T08:57:40;6.00;;;5.03;;
944;SDS011;459;48.676;9.034;2022-12-07T09:00:05;6.87;;;5.70;;
944;SDS011;459;48.676;9.034;2022-12-07T09:02:31;8.40;;;6.30;;
944;SDS011;459;48.676;9.034;2022-12-07T09:04:57;9.40;;;5.43;;
944;SDS011;459;48.676;9.034;2022-12-07T09:07:22;7.77;;;6.00;;
944;SDS011;459;48.676;9.034;2022-12-07T09:09:47;9.47;;;5.60;;
944;SDS011;459;48.676;9.034;2022-12-07T09:12:12;8.90;;;6.83;;
944;SDS011;459;48.676;9.034;2022-12-07T09:14:38;8.10;;;6.20;;
944;SDS011;459;48.676;9.034;2022-12-07T09:17:07;8.43;;;5.73;;
944;SDS011;459;48.676;9.034;2022-12-07T09:19:32;7.20;;;6.07;;
944;SDS011;459;48.676;9.034;2022-12-07T09:21:57;7.53;;;5.80;;
944;SDS011;459;48.676;9.034;2022-12-07T09:24:22;7.93;;;5.77;;
944;SDS011;459;48.676;9.034;2022-12-07T09:26:47;6.37;;;5.00;;
944;SDS011;459;48.676;9.034;2022-12-07T09:29:13;6.53;;;5.80;;
944;SDS011;459;48.676;9.034;2022-12-07T09:31:38;7.60;;;5.60;;
944;SDS011;459;48.676;9.034;2022-12-07T09:34:03;7.30;;;5.90;;
944;SDS011;459;48.676;9.034;2022-12-07T09:36:30;5.80;;;5.07;;
944;SDS011;459;48.676;9.034;2022-12-07T09:38:55;6.37;;;5.37;;
944;SDS011;459;48.676;9.034;2022-12-07T09:41:21;6.40;;;5.47;;
944;SDS011;459;48.676;9.034;2022-12-07T09:43:47;7.63;;;6.10;;
944;SDS011;459;48.676;9.034;2022-12-07T09:46:14;7.97;;;6.03;;
944;SDS011;459;48.676;9.034;2022-12-07T09:48:40;6.60;;;4.70;;
944;SDS011;459;48.676;9.034;2022-12-07T09:51:25;6.17;;;5.37;;
944;SDS011;459;48.676;9.034;2022-12-07T09:53:51;6.50;;;5.07;;
944;SDS011;459;48.676;9.034;2022-12-07T09:56:16;7.10;;;5.73;;
944;SDS011;459;48.676;9.034;2022-12-07T09:58:42;8.53;;;6.53;;
944;SDS011;459;48.676;9.034;2022-12-07T10:03:37;8.20;;;5.90;;
944;SDS011;459;48.676;9.034;2022-12-07T10:06:03;7.17;;;4.73;;
944;SDS011;459;48.676;9.034;2022-12-07T10:08:29;6.93;;;4.87;;
944;SDS011;459;48.676;9.034;2022-12-07T10:10:55;5.10;;;4.63;;
944;SDS011;459;48.676;9.034;2022-12-07T10:13:42;6.77;;;5.73;;
944;SDS011;459;48.676;9.034;2022-12-07T10:18:53;5.87;;;5.00;;
944;SDS011;459;48.676;9.034;2022-12-07T10:21:22;10.30;;;5.57;;
944;SDS011;459;48.676;9.034;2022-12-07T10:28:54;5.72;;;5.20;;
944;SDS011;459;48.676;9.034;2022-12-07T10:31:21;5.30;;;3.70;;
944;SDS011;459;48.676;9.034;2022-12-07T10:33:51;4.57;;;3.70;;
944;SDS011;459;48.676;9.034;2022-12-07T10:36:26;5.93;;;4.90;;
944;SDS011;459;48.676;9.034;2022-12-07T10:38:59;5.60;;;5.10;;
944;SDS011;459;48.676;9.034;2022-12-07T10:41:24;6.40;;;5.33;;
944;SDS011;459;48.676;9.034;2022-12-07T10:43:51;6.80;;;4.87;;
944;SDS011;459;48.676;9.034;2022-12-07T10:49:04;6.57;;;4.40;;
944;SDS011;459;48.676;9.034;2022-12-07T10:54:25;7.97;;;4.50;;
944;SDS011;459;48.676;9.034;2022-12-07T11:01:56;7.85;;;5.47;;
944;SDS011;459;48.676;9.034;2022-12-07T11:17:02;6.37;;;5.03;;
944;SDS011;459;48.676;9.034;2022-12-07T11:22:13;6.63;;;5.37;;
944;SDS011;459;48.676;9.034;2022-12-07T11:24:48;5.63;;;4.10;;
944;SDS011;459;48.676;9.034;2022-12-07T11:27:29;5.40;;;4.30;;
944;SDS011;459;48.676;9.034;2022-12-07T11:30:08;7.20;;;4.13;;
944;SDS011;459;48.676;9.034;2022-12-07T11:32:47;7.93;;;5.77;;
944;SDS011;459;48.676;9.034;2022-12-07T11:37:42;5.40;;;4.43;;
944;SDS011;459;48.676;9.034;2022-12-07T11:42:41;6.50;;;4.60;;
944;SDS011;459;48.676;9.034;2022-12-07T11:45:13;7.13;;;5.07;;
944;SDS011;459;48.676;9.034;2022-12-07T11:55:42;4.95;;;4.40;;
944;SDS011;459;48.676;9.034;2022-12-07T12:00:54;6.30;;;4.40;;
944;SDS011;459;48.676;9.034;2022-12-07T12:03:24;5.40;;;4.20;;
944;SDS011;459;48.676;9.034;2022-12-07T12:05:55;5.30;;;4.50;;
944;SDS011;459;48.676;9.034;2022-12-07T12:08:33;5.73;;;4.67;;
944;SDS011;459;48.676;9.034;2022-12-07T12:11:08;6.10;;;4.80;;
944;SDS011;459;48.676;9.034;2022-12-07T12:21:54;6.53;;;4.40;;
944;SDS011;459;48.676;9.034;2022-12-07T12:24:22;6.60;;;4.80;;
944;SDS011;459;48.676;9.034;2022-12-07T12:26:50;5.20;;;4.30;;
944;SDS011;459;48.676;9.034;2022-12-07T12:29:21;6.50;;;4.93;;
944;SDS011;459;48.676;9.034;2022-12-07T12:32:03;5.20;;;4.70;;
944;SDS011;459;48.676;9.034;2022-12-07T12:42:44;6.50;;;5.20;;
944;SDS011;459;48.676;9.034;2022-12-07T12:45:29;10.83;;;6.03;;
944;SDS011;459;48.676;9.034;2022-12-07T12:47:58;4.93;;;4.43;;
944;SDS011;459;48.676;9.034;2022-12-07T12:50:25;5.07;;;4.20;;
944;SDS011;459;48.676;9.034;2022-12-07T12:52:58;5.40;;;4.20;;
944;SDS011;459;48.676;9.034;2022-12-07T12:56:09;4.37;;;3.97;;
944;SDS011;459;48.676;9.034;2022-12-07T13:00:45;5.27;;;4.33;;
944;SDS011;459;48.676;9.034;2022-12-07T13:03:27;6.10;;;5.33;;
944;SDS011;459;48.676;9.034;2022-12-07T13:08:39;6.53;;;5.27;;
944;SDS011;459;48.676;9.034;2022-12-07T13:13:49;5.30;;;3.57;;
944;SDS011;459;48.676;9.034;2022-12-07T13:18:39;4.28;;;3.88;;
944;SDS011;459;48.676;9.034;2022-12-07T13:28:43;5.03;;;4.30;;
944;SDS011;459;48.676;9.034;2022-12-07T13:33:36;8.20;;;4.03;;
944;SDS011;459;48.676;9.034;2022-12-07T13:36:01;5.33;;;4.60;;
944;SDS011;459;48.676;9.034;2022-12-07T13:38:28;6.47;;;5.40;;
944;SDS011;459;48.676;9.034;2022-12-07T13:46:13;4.90;;;4.40;;
944;SDS011;459;48.676;9.034;2022-12-07T13:48:48;5.30;;;4.80;;
944;SDS011;459;48.676;9.034;2022-12-07T13:51:27;6.07;;;4.63;;
944;SDS011;459;48.676;9.034;2022-12-07T13:53:57;12.27;;;5.40;;
944;SDS011;459;48.676;9.034;2022-12-07T13:56:26;4.93;;;3.53;;
944;SDS011;459;48.676;9.034;2022-12-07T13:58:52;4.60;;;4.20;;
944;SDS011;459;48.676;9.034;2022-12-07T14:01:17;5.33;;;4.00;;
944;SDS011;459;48.676;9.034;2022-12-07T14:03:43;6.33;;;4.17;;
944;SDS011;459;48.676;9.034;2022-12-07T14:06:16;8.43;;;5.40;;
944;SDS011;459;48.676;9.034;2022-12-07T14:08:42;7.90;;;5.80;;
944;SDS011;459;48.676;9.034;2022-12-07T14:11:09;7.20;;;5.23;;
944;SDS011;459;48.676;9.034;2022-12-07T14:13:38;8.07;;;6.13;;
944;SDS011;459;48.676;9.034;2022-12-07T14:16:26;7.87;;;6.27;;
944;SDS011;459;48.676;9.034;2022-12-07T14:18:53;8.90;;;6.33;;
944;SDS011;459;48.676;9.034;2022-12-07T14:21:20;7.60;;;5.03;;
944;SDS011;459;48.676;9.034;2022-12-07T14:24:08;6.10;;;4.63;;
944;SDS011;459;48.676;9.034;2022-12-07T14:26:33;8.57;;;6.37;;
944;SDS011;459;48.676;9.034;2022-12-07T14:31:43;6.00;;;4.83;;
944;SDS011;459;48.676;9.034;2022-12-07T14:34:11;7.80;;;5.60;;
944;SDS011;459;48.676;9.034;2022-12-07T14:36:37;10.13;;;7.37;;
944;SDS011;459;48.676;9.034;2022-12-07T14:39:02;6.20;;;5.60;;
944;SDS011;459;48.676;9.034;2022-12-07T14:41:27;8.57;;;6.03;;
944;SDS011;459;48.676;9.034;2022-12-07T14:44:11;7.87;;;5.30;;
944;SDS011;459;48.676;9.034;2022-12-07T14:46:36;6.17;;;5.40;;
944;SDS011;459;48.676;9.034;2022-12-07T14:49:02;8.33;;;7.03;;
944;SDS011;459;48.676;9.034;2022-12-07T14:51:27;6.37;;;5.73;;
944;SDS011;459;48.676;9.034;2022-12-07T14:53:52;5.83;;;5.00;;
944;SDS011;459;48.676;9.034;2022-12-07T14:56:18;6.10;;;4.70;;
944;SDS011;459;48.676;9.034;2022-12-07T14:58:43;5.80;;;4.33;;
944;SDS011;459;48.676;9.034;2022-12-07T15:01:08;6.17;;;4.77;;
944;SDS011;459;48.676;9.034;2022-12-07T15:03:33;5.77;;;4.27;;
944;SDS011;459;48.676;9.034;2022-12-07T15:05:59;7.17;;;5.00;;
944;SDS011;459;48.676;9.034;2022-12-07T15:08:25;6.80;;;6.10;;
944;SDS011;459;48.676;9.034;2022-12-07T15:10:50;5.10;;;4.60;;
944;SDS011;459;48.676;9.034;2022-12-07T15:13:15;6.47;;;5.07;;
944;SDS011;459;48.676;9.034;2022-12-07T15:15:59;5.33;;;4.40;;
944;SDS011;459;48.676;9.034;2022-12-07T15:18:24;5.10;;;4.50;;
944;SDS011;459;48.676;9.034;2022-12-07T15:20:50;5.93;;;5.33;;
944;SDS011;459;48.676;9.034;2022-12-07T15:23:15;10.27;;;5.80;;
944;SDS011;459;48.676;9.034;2022-12-07T15:25:41;6.80;;;5.30;;
944;SDS011;459;48.676;9.034;2022-12-07T15:28:06;6.67;;;5.97;;
944;SDS011;459;48.676;9.034;2022-12-07T15:30:32;7.30;;;6.60;;
944;SDS011;459;48.676;9.034;2022-12-07T15:32:57;7.20;;;5.63;;
944;SDS011;459;48.676;9.034;2022-12-07T15:35:22;6.17;;;4.80;;
944;SDS011;459;48.676;9.034;2022-12-07T15:37:47;8.00;;;5.57;;
944;SDS011;459;48.676;9.034;2022-12-07T15:40:13;6.73;;;5.80;;
944;SDS011;459;48.676;9.034;2022-12-07T15:42:38;10.50;;;6.97;;
944;SDS011;459;48.676;9.034;2022-12-07T15:45:04;10.67;;;7.60;;
944;SDS011;459;48.676;9.034;2022-12-07T15:47:31;8.80;;;6.90;;
944;SDS011;459;48.676;9.034;2022-12-07T15:49:57;9.00;;;7.33;;
944;SDS011;459;48.676;9.034;2022-12-07T15:52:22;9.83;;;7.40;;
944;SDS011;459;48.676;9.034;2022-12-07T15:54:47;8.97;;;7.10;;
944;SDS011;459;48.676;9.034;2022-12-07T15:57:13;9.67;;;7.30;;
944;SDS011;459;48.676;9.034;2022-12-07T15:59:38;10.67;;;7.23;;
944;SDS011;459;48.676;9.034;2022-12-07T16:02:03;9.13;;;7.20;;
944;SDS011;459;48.676;9.034;2022-12-07T16:04:29;8.50;;;7.03;;
944;SDS011;459;48.676;9.034;2022-12-07T16:06:54;12.07;;;7.97;;
944;SDS011;459;48.676;9.034;2022-12-07T16:09:19;9.30;;;8.30;;
944;SDS011;459;48.676;9.034;2022-12-07T16:11:45;9.77;;;8.17;;
944;SDS011;459;48.676;9.034;2022-12-07T16:14:10;8.77;;;7.87;;
944;SDS011;459;48.676;9.034;2022-12-07T16:16:36;11.40;;;9.40;;
944;SDS011;459;48.676;9.034;2022-12-07T16:19:01;17.17;;;8.67;;
944;SDS011;459;48.676;9.034;2022-12-07T16:21:27;10.90;;;9.07;;
944;SDS011;459;48.676;9.034;2022-12-07T16:23:52;9.97;;;7.93;;
944;SDS011;459;48.676;9.034;2022-12-07T16:26:19;12.27;;;9.77;;
944;SDS011;459;48.676;9.034;2022-12-07T16:28:45;12.63;;;8.10;;
944;SDS011;459;48.676;9.034;2022-12-07T16:31:11;13.47;;;8.13;;
944;SDS011;459;48.676;9.034;2022-12-07T16:33:38;12.60;;;9.33;;
944;SDS011;459;48.676;9.034;2022-12-07T16:36:04;12.80;;;9.10;;
944;SDS011;459;48.676;9.034;2022-12-07T16:38:29;9.67;;;8.30;;
944;SDS011;459;48.676;9.034;2022-12-07T16:40:54;10.13;;;8.50;;
944;SDS011;459;48.676;9.034;2022-12-07T16:43:20;8.63;;;7.50;;
944;SDS011;459;48.676;9.034;2022-12-07T16:45:45;11.50;;;8.03;;
944;SDS011;459;48.676;9.034;2022-12-07T16:48:11;14.27;;;9.10;;
944;SDS011;459;48.676;9.034;2022-12-07T16:50:38;11.17;;;8.13;;
944;SDS011;459;48.676;9.034;2022-12-07T16:53:03;13.00;;;9.20;;
944;SDS011;459;48.676;9.034;2022-12-07T16:55:29;13.93;;;10.50;;
944;SDS011;459;48.676;9.034;2022-12-07T16:57:54;10.13;;;8.73;;
944;SDS011;459;48.676;9.034;2022-12-07T17:00:19;8.83;;;7.03;;
944;SDS011;459;48.676;9.034;2022-12-07T17:02:44;12.00;;;9.13;;
944;SDS011;459;48.676;9.034;2022-12-07T17:05:10;18.20;;;10.30;;
944;SDS011;459;48.676;9.034;2022-12-07T17:07:35;11.50;;;8.97;;
944;SDS011;459;48.676;9.034;2022-12-07T17:10:00;11.67;;;8.80;;
944;SDS011;459;48.676;9.034;2022-12-07T17:12:25;11.23;;;9.20;;
944;SDS011;459;48.676;9.034;2022-12-07T17:14:50;11.10;;;9.73;;
944;SDS011;459;48.676;9.034;2022-12-07T17:17:34;10.70;;;9.00;;
944;SDS011;459;48.676;9.034;2022-12-07T17:19:59;11.77;;;8.53;;
944;SDS011;459;48.676;9.034;2022-12-07T17:22:27;10.63;;;8.83;;
944;SDS011;459;48.676;9.034;2022-12-07T17:24:53;15.67;;;10.80;;